sensor_id;sensor_type;location;lat;lon;timestamp;P1;durP1;ratioP1;P2;durP2;ratioP2
66298;SDS011;53098;47.658;8.578;2024-01-30T00:01:38;41.90;;;8.37;;
66298;SDS011;53098;47.658;8.578;2024-01-30T00:04:03;68.17;;;8.53;;
66298;SDS011;53098;47.658;8.578;2024-01-30T00:06:28;45.53;;;7.97;;
66298;SDS011;53098;47.658;8.578;2024-01-30T00:08:53;22.17;;;7.97;;
66298;SDS011;53098;47.658;8.578;2024-01-30T00:11:19;78.00;;;8.63;;
66298;SDS011;53098;47.658;8.578;2024-01-30T00:13:44;47.50;;;8.43;;
66298;SDS011;53098;47.658;8.578;2024-01-30T00:16:19;30.60;;;7.77;;
66298;SDS011;53098;47.658;8.578;2024-01-30T00:18:44;13.90;;;7.85;;
66298;SDS011;53098;47.658;8.578;2024-01-30T00:21:10;14.77;;;7.77;;
66298;SDS011;53098;47.658;8.578;2024-01-30T00:23:35;35.87;;;8.13;;
66298;SDS011;53098;47.658;8.578;2024-01-30T00:26:00;40.73;;;7.67;;
66298;SDS011;53098;47.658;8.578;2024-01-30T00:28:25;23.50;;;7.97;;
66298;SDS011;53098;47.658;8.578;2024-01-30T00:30:50;23.13;;;7.10;;
66298;SDS011;53098;47.658;8.578;2024-01-30T00:33:16;15.97;;;7.70;;
66298;SDS011;53098;47.658;8.578;2024-01-30T00:35:41;16.03;;;7.43;;
66298;SDS011;53098;47.658;8.578;2024-01-30T00:38:06;24.63;;;7.90;;
66298;SDS011;53098;47.658;8.578;2024-01-30T00:40:31;21.87;;;6.90;;
66298;SDS011;53098;47.658;8.578;2024-01-30T00:42:57;32.43;;;8.87;;
66298;SDS011;53098;47.658;8.578;2024-01-30T00:45:22;14.63;;;7.27;;
66298;SDS011;53098;47.658;8.578;2024-01-30T00:47:47;28.77;;;7.13;;
66298;SDS011;53098;47.658;8.578;2024-01-30T00:50:12;31.63;;;7.00;;
66298;SDS011;53098;47.658;8.578;2024-01-30T00:52:38;38.03;;;7.13;;
66298;SDS011;53098;47.658;8.578;2024-01-30T00:55:03;19.77;;;7.33;;
66298;SDS011;53098;47.658;8.578;2024-01-30T00:57:28;58.63;;;7.03;;
66298;SDS011;53098;47.658;8.578;2024-01-30T00:59:54;19.95;;;6.13;;
66298;SDS011;53098;47.658;8.578;2024-01-30T01:02:19;13.53;;;6.87;;
66298;SDS011;53098;47.658;8.578;2024-01-30T01:04:44;32.73;;;6.83;;
66298;SDS011;53098;47.658;8.578;2024-01-30T01:07:10;11.80;;;6.67;;
66298;SDS011;53098;47.658;8.578;2024-01-30T01:09:35;29.23;;;6.22;;
66298;SDS011;53098;47.658;8.578;2024-01-30T01:12:01;34.63;;;6.57;;
66298;SDS011;53098;47.658;8.578;2024-01-30T01:14:26;13.30;;;6.53;;
66298;SDS011;53098;47.658;8.578;2024-01-30T01:16:51;19.67;;;6.07;;
66298;SDS011;53098;47.658;8.578;2024-01-30T01:19:16;16.90;;;5.50;;
66298;SDS011;53098;47.658;8.578;2024-01-30T01:21:42;10.47;;;6.00;;
66298;SDS011;53098;47.658;8.578;2024-01-30T01:24:07;13.90;;;5.47;;
66298;SDS011;53098;47.658;8.578;2024-01-30T01:26:32;71.53;;;7.33;;
66298;SDS011;53098;47.658;8.578;2024-01-30T01:28:57;24.93;;;6.87;;
66298;SDS011;53098;47.658;8.578;2024-01-30T01:31:23;70.33;;;7.13;;
66298;SDS011;53098;47.658;8.578;2024-01-30T01:33:48;42.57;;;7.60;;
66298;SDS011;53098;47.658;8.578;2024-01-30T01:36:13;19.30;;;7.17;;
66298;SDS011;53098;47.658;8.578;2024-01-30T01:38:38;17.90;;;6.75;;
66298;SDS011;53098;47.658;8.578;2024-01-30T01:41:04;32.83;;;6.80;;
66298;SDS011;53098;47.658;8.578;2024-01-30T01:43:29;19.53;;;6.87;;
66298;SDS011;53098;47.658;8.578;2024-01-30T01:45:54;17.40;;;6.50;;
66298;SDS011;53098;47.658;8.578;2024-01-30T01:48:19;101.43;;;8.00;;
66298;SDS011;53098;47.658;8.578;2024-01-30T01:50:45;26.08;;;7.57;;
66298;SDS011;53098;47.658;8.578;2024-01-30T01:53:10;36.27;;;7.53;;
66298;SDS011;53098;47.658;8.578;2024-01-30T01:55:36;51.40;;;6.97;;
66298;SDS011;53098;47.658;8.578;2024-01-30T01:58:02;49.65;;;7.18;;
66298;SDS011;53098;47.658;8.578;2024-01-30T02:00:27;57.38;;;7.15;;
66298;SDS011;53098;47.658;8.578;2024-01-30T02:02:54;13.43;;;6.03;;
66298;SDS011;53098;47.658;8.578;2024-01-30T02:05:19;21.55;;;6.90;;
66298;SDS011;53098;47.658;8.578;2024-01-30T02:07:45;53.10;;;7.35;;
66298;SDS011;53098;47.658;8.578;2024-01-30T02:10:10;40.67;;;7.07;;
66298;SDS011;53098;47.658;8.578;2024-01-30T02:12:35;53.57;;;6.67;;
66298;SDS011;53098;47.658;8.578;2024-01-30T02:15:00;18.40;;;6.70;;
66298;SDS011;53098;47.658;8.578;2024-01-30T02:17:26;62.83;;;6.70;;
66298;SDS011;53098;47.658;8.578;2024-01-30T02:19:51;45.60;;;7.27;;
66298;SDS011;53098;47.658;8.578;2024-01-30T02:22:16;13.02;;;6.75;;
66298;SDS011;53098;47.658;8.578;2024-01-30T02:24:42;25.88;;;6.05;;
66298;SDS011;53098;47.658;8.578;2024-01-30T02:27:07;29.53;;;6.33;;
66298;SDS011;53098;47.658;8.578;2024-01-30T02:29:32;13.20;;;6.20;;
66298;SDS011;53098;47.658;8.578;2024-01-30T02:31:58;22.35;;;6.10;;
66298;SDS011;53098;47.658;8.578;2024-01-30T02:34:23;10.50;;;5.90;;
66298;SDS011;53098;47.658;8.578;2024-01-30T02:36:48;14.00;;;6.55;;
66298;SDS011;53098;47.658;8.578;2024-01-30T02:39:14;12.70;;;5.90;;
66298;SDS011;53098;47.658;8.578;2024-01-30T02:41:39;13.57;;;5.75;;
66298;SDS011;53098;47.658;8.578;2024-01-30T02:44:04;10.33;;;5.37;;
66298;SDS011;53098;47.658;8.578;2024-01-30T02:46:29;22.53;;;6.10;;
66298;SDS011;53098;47.658;8.578;2024-01-30T02:48:55;21.40;;;6.00;;
66298;SDS011;53098;47.658;8.578;2024-01-30T02:51:20;10.73;;;5.87;;
66298;SDS011;53098;47.658;8.578;2024-01-30T02:53:45;14.63;;;5.77;;
66298;SDS011;53098;47.658;8.578;2024-01-30T02:56:11;19.77;;;5.43;;
66298;SDS011;53098;47.658;8.578;2024-01-30T02:58:36;11.25;;;6.50;;
66298;SDS011;53098;47.658;8.578;2024-01-30T03:01:02;16.00;;;5.60;;
66298;SDS011;53098;47.658;8.578;2024-01-30T03:03:27;10.43;;;5.90;;
66298;SDS011;53098;47.658;8.578;2024-01-30T03:05:52;10.00;;;5.50;;
66298;SDS011;53098;47.658;8.578;2024-01-30T03:08:17;14.13;;;6.37;;
66298;SDS011;53098;47.658;8.578;2024-01-30T03:10:43;10.03;;;5.73;;
66298;SDS011;53098;47.658;8.578;2024-01-30T03:13:08;10.37;;;5.43;;
66298;SDS011;53098;47.658;8.578;2024-01-30T03:15:33;10.77;;;5.73;;
66298;SDS011;53098;47.658;8.578;2024-01-30T03:17:58;10.40;;;5.77;;
66298;SDS011;53098;47.658;8.578;2024-01-30T03:20:23;12.77;;;6.30;;
66298;SDS011;53098;47.658;8.578;2024-01-30T03:22:49;16.40;;;5.93;;
66298;SDS011;53098;47.658;8.578;2024-01-30T03:25:14;10.63;;;5.87;;
66298;SDS011;53098;47.658;8.578;2024-01-30T03:27:39;15.93;;;6.17;;
66298;SDS011;53098;47.658;8.578;2024-01-30T03:30:05;12.87;;;6.00;;
66298;SDS011;53098;47.658;8.578;2024-01-30T03:32:30;16.33;;;6.20;;
66298;SDS011;53098;47.658;8.578;2024-01-30T03:34:56;13.23;;;5.70;;
66298;SDS011;53098;47.658;8.578;2024-01-30T03:37:21;12.40;;;6.50;;
66298;SDS011;53098;47.658;8.578;2024-01-30T03:39:46;21.90;;;6.50;;
66298;SDS011;53098;47.658;8.578;2024-01-30T03:42:11;33.70;;;7.13;;
66298;SDS011;53098;47.658;8.578;2024-01-30T03:44:36;31.73;;;7.17;;
66298;SDS011;53098;47.658;8.578;2024-01-30T03:47:02;39.57;;;7.40;;
66298;SDS011;53098;47.658;8.578;2024-01-30T03:49:27;17.83;;;7.23;;
66298;SDS011;53098;47.658;8.578;2024-01-30T03:51:52;17.77;;;6.87;;
66298;SDS011;53098;47.658;8.578;2024-01-30T03:54:18;54.95;;;7.13;;
66298;SDS011;53098;47.658;8.578;2024-01-30T03:56:43;61.73;;;7.37;;
66298;SDS011;53098;47.658;8.578;2024-01-30T03:59:08;62.00;;;7.77;;
66298;SDS011;53098;47.658;8.578;2024-01-30T04:01:33;31.87;;;6.53;;
66298;SDS011;53098;47.658;8.578;2024-01-30T04:03:58;24.53;;;6.00;;
66298;SDS011;53098;47.658;8.578;2024-01-30T04:06:24;11.90;;;5.80;;
66298;SDS011;53098;47.658;8.578;2024-01-30T04:08:49;35.57;;;6.30;;
66298;SDS011;53098;47.658;8.578;2024-01-30T04:11:14;42.03;;;8.63;;
66298;SDS011;53098;47.658;8.578;2024-01-30T04:13:39;41.07;;;6.70;;
66298;SDS011;53098;47.658;8.578;2024-01-30T04:16:05;64.57;;;6.37;;
66298;SDS011;53098;47.658;8.578;2024-01-30T04:18:30;29.88;;;6.75;;
66298;SDS011;53098;47.658;8.578;2024-01-30T04:20:56;21.50;;;5.50;;
66298;SDS011;53098;47.658;8.578;2024-01-30T04:23:21;31.25;;;6.28;;
66298;SDS011;53098;47.658;8.578;2024-01-30T04:25:46;13.05;;;5.55;;
66298;SDS011;53098;47.658;8.578;2024-01-30T04:28:12;22.07;;;6.27;;
66298;SDS011;53098;47.658;8.578;2024-01-30T04:30:37;16.90;;;6.03;;
66298;SDS011;53098;47.658;8.578;2024-01-30T04:33:03;12.20;;;5.70;;
66298;SDS011;53098;47.658;8.578;2024-01-30T04:35:28;11.60;;;6.90;;
66298;SDS011;53098;47.658;8.578;2024-01-30T04:37:53;13.93;;;7.33;;
66298;SDS011;53098;47.658;8.578;2024-01-30T04:40:19;28.97;;;7.07;;
66298;SDS011;53098;47.658;8.578;2024-01-30T04:42:44;32.22;;;6.80;;
66298;SDS011;53098;47.658;8.578;2024-01-30T04:45:10;33.57;;;6.70;;
66298;SDS011;53098;47.658;8.578;2024-01-30T04:47:35;18.60;;;6.77;;
66298;SDS011;53098;47.658;8.578;2024-01-30T04:50:01;12.53;;;6.70;;
66298;SDS011;53098;47.658;8.578;2024-01-30T04:52:26;15.32;;;7.78;;
66298;SDS011;53098;47.658;8.578;2024-01-30T04:54:51;13.90;;;7.17;;
66298;SDS011;53098;47.658;8.578;2024-01-30T04:57:16;17.07;;;7.53;;
66298;SDS011;53098;47.658;8.578;2024-01-30T04:59:42;20.03;;;7.20;;
66298;SDS011;53098;47.658;8.578;2024-01-30T05:02:07;25.33;;;7.50;;
66298;SDS011;53098;47.658;8.578;2024-01-30T05:04:32;32.53;;;8.70;;
66298;SDS011;53098;47.658;8.578;2024-01-30T05:06:57;57.73;;;7.60;;
66298;SDS011;53098;47.658;8.578;2024-01-30T05:09:23;49.87;;;7.43;;
66298;SDS011;53098;47.658;8.578;2024-01-30T05:11:48;14.47;;;7.10;;
66298;SDS011;53098;47.658;8.578;2024-01-30T05:14:13;16.60;;;6.43;;
66298;SDS011;53098;47.658;8.578;2024-01-30T05:16:38;55.33;;;7.30;;
66298;SDS011;53098;47.658;8.578;2024-01-30T05:19:04;86.33;;;7.13;;
66298;SDS011;53098;47.658;8.578;2024-01-30T05:21:29;30.43;;;7.50;;
66298;SDS011;53098;47.658;8.578;2024-01-30T05:23:54;31.17;;;7.00;;
66298;SDS011;53098;47.658;8.578;2024-01-30T05:26:19;21.73;;;7.30;;
66298;SDS011;53098;47.658;8.578;2024-01-30T05:28:44;37.87;;;7.80;;
66298;SDS011;53098;47.658;8.578;2024-01-30T05:31:11;14.05;;;8.07;;
66298;SDS011;53098;47.658;8.578;2024-01-30T05:33:36;33.43;;;7.57;;
66298;SDS011;53098;47.658;8.578;2024-01-30T05:36:02;25.43;;;7.17;;
66298;SDS011;53098;47.658;8.578;2024-01-30T05:38:30;43.88;;;7.53;;
66298;SDS011;53098;47.658;8.578;2024-01-30T05:40:56;22.10;;;7.20;;
66298;SDS011;53098;47.658;8.578;2024-01-30T05:43:21;83.47;;;9.07;;
66298;SDS011;53098;47.658;8.578;2024-01-30T05:45:46;95.73;;;8.03;;
66298;SDS011;53098;47.658;8.578;2024-01-30T05:48:11;89.13;;;8.27;;
66298;SDS011;53098;47.658;8.578;2024-01-30T05:50:37;19.83;;;7.37;;
66298;SDS011;53098;47.658;8.578;2024-01-30T05:53:02;39.83;;;7.77;;
66298;SDS011;53098;47.658;8.578;2024-01-30T05:55:27;37.57;;;7.07;;
66298;SDS011;53098;47.658;8.578;2024-01-30T05:57:52;19.73;;;6.97;;
66298;SDS011;53098;47.658;8.578;2024-01-30T06:00:18;15.93;;;6.97;;
66298;SDS011;53098;47.658;8.578;2024-01-30T06:02:43;22.35;;;7.28;;
66298;SDS011;53098;47.658;8.578;2024-01-30T06:05:08;30.30;;;7.43;;
66298;SDS011;53098;47.658;8.578;2024-01-30T06:07:33;32.20;;;6.87;;
66298;SDS011;53098;47.658;8.578;2024-01-30T06:09:59;16.40;;;7.07;;
66298;SDS011;53098;47.658;8.578;2024-01-30T06:12:24;37.10;;;6.90;;
66298;SDS011;53098;47.658;8.578;2024-01-30T06:14:49;32.83;;;7.53;;
66298;SDS011;53098;47.658;8.578;2024-01-30T06:17:14;31.33;;;7.13;;
66298;SDS011;53098;47.658;8.578;2024-01-30T06:19:40;53.47;;;7.67;;
66298;SDS011;53098;47.658;8.578;2024-01-30T06:22:05;25.40;;;6.60;;
66298;SDS011;53098;47.658;8.578;2024-01-30T06:24:30;36.23;;;7.83;;
66298;SDS011;53098;47.658;8.578;2024-01-30T06:26:55;17.73;;;7.60;;
66298;SDS011;53098;47.658;8.578;2024-01-30T06:29:20;30.93;;;7.10;;
66298;SDS011;53098;47.658;8.578;2024-01-30T06:31:46;34.80;;;7.47;;
66298;SDS011;53098;47.658;8.578;2024-01-30T06:34:11;30.10;;;7.10;;
66298;SDS011;53098;47.658;8.578;2024-01-30T06:36:36;38.93;;;6.50;;
66298;SDS011;53098;47.658;8.578;2024-01-30T06:39:03;13.53;;;6.73;;
66298;SDS011;53098;47.658;8.578;2024-01-30T06:41:28;19.95;;;7.28;;
66298;SDS011;53098;47.658;8.578;2024-01-30T06:43:53;26.43;;;7.07;;
66298;SDS011;53098;47.658;8.578;2024-01-30T06:46:19;14.13;;;6.97;;
66298;SDS011;53098;47.658;8.578;2024-01-30T06:48:44;22.37;;;7.70;;
66298;SDS011;53098;47.658;8.578;2024-01-30T06:51:09;14.77;;;7.23;;
66298;SDS011;53098;47.658;8.578;2024-01-30T06:53:34;17.07;;;7.20;;
66298;SDS011;53098;47.658;8.578;2024-01-30T06:56:00;15.73;;;7.47;;
66298;SDS011;53098;47.658;8.578;2024-01-30T06:58:25;23.20;;;7.90;;
66298;SDS011;53098;47.658;8.578;2024-01-30T07:00:51;38.93;;;7.77;;
66298;SDS011;53098;47.658;8.578;2024-01-30T07:03:16;16.98;;;7.80;;
66298;SDS011;53098;47.658;8.578;2024-01-30T07:05:41;22.73;;;7.30;;
66298;SDS011;53098;47.658;8.578;2024-01-30T07:08:06;32.93;;;8.93;;
66298;SDS011;53098;47.658;8.578;2024-01-30T07:10:31;18.87;;;8.73;;
66298;SDS011;53098;47.658;8.578;2024-01-30T07:12:57;23.80;;;8.90;;
66298;SDS011;53098;47.658;8.578;2024-01-30T07:15:22;37.53;;;8.27;;
66298;SDS011;53098;47.658;8.578;2024-01-30T07:17:47;19.77;;;8.60;;
66298;SDS011;53098;47.658;8.578;2024-01-30T07:20:13;22.47;;;9.33;;
66298;SDS011;53098;47.658;8.578;2024-01-30T07:22:38;17.37;;;9.20;;
66298;SDS011;53098;47.658;8.578;2024-01-30T07:25:03;28.60;;;10.87;;
66298;SDS011;53098;47.658;8.578;2024-01-30T07:27:29;23.95;;;11.18;;
66298;SDS011;53098;47.658;8.578;2024-01-30T07:29:54;25.90;;;12.13;;
66298;SDS011;53098;47.658;8.578;2024-01-30T07:32:19;23.13;;;10.73;;
66298;SDS011;53098;47.658;8.578;2024-01-30T07:34:44;30.17;;;10.33;;
66298;SDS011;53098;47.658;8.578;2024-01-30T07:37:09;24.00;;;10.47;;
66298;SDS011;53098;47.658;8.578;2024-01-30T07:39:35;30.03;;;10.20;;
66298;SDS011;53098;47.658;8.578;2024-01-30T07:42:00;32.60;;;11.07;;
66298;SDS011;53098;47.658;8.578;2024-01-30T07:44:25;19.90;;;10.67;;
66298;SDS011;53098;47.658;8.578;2024-01-30T07:46:50;19.50;;;10.43;;
66298;SDS011;53098;47.658;8.578;2024-01-30T07:49:16;22.20;;;9.43;;
66298;SDS011;53098;47.658;8.578;2024-01-30T07:51:41;21.47;;;9.83;;
66298;SDS011;53098;47.658;8.578;2024-01-30T07:54:06;27.00;;;9.63;;
66298;SDS011;53098;47.658;8.578;2024-01-30T07:56:31;22.93;;;10.13;;
66298;SDS011;53098;47.658;8.578;2024-01-30T07:58:56;20.33;;;9.97;;
66298;SDS011;53098;47.658;8.578;2024-01-30T08:01:22;21.37;;;9.47;;
66298;SDS011;53098;47.658;8.578;2024-01-30T08:03:47;22.80;;;10.93;;
66298;SDS011;53098;47.658;8.578;2024-01-30T08:06:12;28.93;;;10.63;;
66298;SDS011;53098;47.658;8.578;2024-01-30T08:08:37;20.03;;;9.83;;
66298;SDS011;53098;47.658;8.578;2024-01-30T08:11:03;76.50;;;10.70;;
66298;SDS011;53098;47.658;8.578;2024-01-30T08:13:28;26.47;;;9.43;;
66298;SDS011;53098;47.658;8.578;2024-01-30T08:15:53;21.83;;;9.77;;
66298;SDS011;53098;47.658;8.578;2024-01-30T08:18:18;19.77;;;9.43;;
66298;SDS011;53098;47.658;8.578;2024-01-30T08:20:44;33.83;;;10.90;;
66298;SDS011;53098;47.658;8.578;2024-01-30T08:23:09;35.20;;;15.83;;
66298;SDS011;53098;47.658;8.578;2024-01-30T08:25:34;22.10;;;10.73;;
66298;SDS011;53098;47.658;8.578;2024-01-30T08:27:59;27.90;;;9.93;;
66298;SDS011;53098;47.658;8.578;2024-01-30T08:30:24;18.90;;;10.37;;
66298;SDS011;53098;47.658;8.578;2024-01-30T08:32:50;26.57;;;10.97;;
66298;SDS011;53098;47.658;8.578;2024-01-30T08:35:15;26.80;;;12.83;;
66298;SDS011;53098;47.658;8.578;2024-01-30T08:37:40;25.93;;;11.30;;
66298;SDS011;53098;47.658;8.578;2024-01-30T08:40:06;24.13;;;11.87;;
66298;SDS011;53098;47.658;8.578;2024-01-30T08:42:31;23.70;;;13.13;;
66298;SDS011;53098;47.658;8.578;2024-01-30T08:44:56;25.80;;;12.37;;
66298;SDS011;53098;47.658;8.578;2024-01-30T08:47:21;47.23;;;12.70;;
66298;SDS011;53098;47.658;8.578;2024-01-30T08:49:47;25.13;;;12.27;;
66298;SDS011;53098;47.658;8.578;2024-01-30T08:52:12;23.80;;;12.67;;
66298;SDS011;53098;47.658;8.578;2024-01-30T08:54:37;23.00;;;12.68;;
66298;SDS011;53098;47.658;8.578;2024-01-30T08:57:02;22.33;;;11.67;;
66298;SDS011;53098;47.658;8.578;2024-01-30T08:59:28;20.50;;;10.80;;
66298;SDS011;53098;47.658;8.578;2024-01-30T09:01:53;22.73;;;11.30;;
66298;SDS011;53098;47.658;8.578;2024-01-30T09:04:18;20.73;;;11.43;;
66298;SDS011;53098;47.658;8.578;2024-01-30T09:06:43;24.47;;;11.70;;
66298;SDS011;53098;47.658;8.578;2024-01-30T09:09:09;21.63;;;10.70;;
66298;SDS011;53098;47.658;8.578;2024-01-30T09:11:34;29.73;;;9.40;;
66298;SDS011;53098;47.658;8.578;2024-01-30T09:14:00;17.42;;;9.02;;
66298;SDS011;53098;47.658;8.578;2024-01-30T09:16:25;17.33;;;8.00;;
66298;SDS011;53098;47.658;8.578;2024-01-30T09:18:50;46.63;;;7.20;;
66298;SDS011;53098;47.658;8.578;2024-01-30T09:21:15;24.80;;;6.87;;
66298;SDS011;53098;47.658;8.578;2024-01-30T09:23:41;25.27;;;6.87;;
66298;SDS011;53098;47.658;8.578;2024-01-30T09:26:06;14.17;;;7.70;;
66298;SDS011;53098;47.658;8.578;2024-01-30T09:28:31;19.77;;;8.17;;
66298;SDS011;53098;47.658;8.578;2024-01-30T09:30:56;46.67;;;8.87;;
66298;SDS011;53098;47.658;8.578;2024-01-30T09:33:21;67.47;;;8.67;;
66298;SDS011;53098;47.658;8.578;2024-01-30T09:35:47;37.10;;;9.17;;
66298;SDS011;53098;47.658;8.578;2024-01-30T09:38:12;67.57;;;8.13;;
66298;SDS011;53098;47.658;8.578;2024-01-30T09:40:37;43.43;;;7.30;;
66298;SDS011;53098;47.658;8.578;2024-01-30T09:43:02;27.53;;;6.67;;
66298;SDS011;53098;47.658;8.578;2024-01-30T09:45:28;42.97;;;7.93;;
66298;SDS011;53098;47.658;8.578;2024-01-30T09:47:54;23.67;;;8.45;;
66298;SDS011;53098;47.658;8.578;2024-01-30T09:50:19;19.80;;;7.60;;
66298;SDS011;53098;47.658;8.578;2024-01-30T09:52:45;41.67;;;8.55;;
66298;SDS011;53098;47.658;8.578;2024-01-30T09:55:11;18.10;;;9.23;;
66298;SDS011;53098;47.658;8.578;2024-01-30T09:57:37;28.77;;;9.55;;
66298;SDS011;53098;47.658;8.578;2024-01-30T10:00:03;36.35;;;8.55;;
66298;SDS011;53098;47.658;8.578;2024-01-30T10:02:28;21.65;;;9.02;;
66298;SDS011;53098;47.658;8.578;2024-01-30T10:04:53;16.50;;;7.60;;
66298;SDS011;53098;47.658;8.578;2024-01-30T10:07:19;24.40;;;11.97;;
66298;SDS011;53098;47.658;8.578;2024-01-30T10:09:44;60.85;;;10.30;;
66298;SDS011;53098;47.658;8.578;2024-01-30T10:12:10;39.50;;;11.85;;
66298;SDS011;53098;47.658;8.578;2024-01-30T10:14:39;20.10;;;10.45;;
66298;SDS011;53098;47.658;8.578;2024-01-30T10:17:04;22.90;;;10.85;;
66298;SDS011;53098;47.658;8.578;2024-01-30T10:19:29;24.83;;;8.67;;
66298;SDS011;53098;47.658;8.578;2024-01-30T10:21:54;21.57;;;10.27;;
66298;SDS011;53098;47.658;8.578;2024-01-30T10:24:23;22.80;;;9.57;;
66298;SDS011;53098;47.658;8.578;2024-01-30T10:26:48;34.67;;;10.13;;
66298;SDS011;53098;47.658;8.578;2024-01-30T10:29:14;26.73;;;9.45;;
66298;SDS011;53098;47.658;8.578;2024-01-30T10:31:39;16.03;;;9.13;;
66298;SDS011;53098;47.658;8.578;2024-01-30T10:34:04;17.80;;;9.50;;
66298;SDS011;53098;47.658;8.578;2024-01-30T10:36:29;19.67;;;9.97;;
66298;SDS011;53098;47.658;8.578;2024-01-30T10:38:56;19.00;;;10.20;;
66298;SDS011;53098;47.658;8.578;2024-01-30T10:41:26;33.17;;;12.70;;
66298;SDS011;53098;47.658;8.578;2024-01-30T10:43:55;32.10;;;9.05;;
66298;SDS011;53098;47.658;8.578;2024-01-30T10:46:23;21.40;;;8.70;;
66298;SDS011;53098;47.658;8.578;2024-01-30T10:48:56;19.73;;;10.00;;
66298;SDS011;53098;47.658;8.578;2024-01-30T10:51:22;17.55;;;9.45;;
66298;SDS011;53098;47.658;8.578;2024-01-30T10:53:47;17.20;;;10.03;;
66298;SDS011;53098;47.658;8.578;2024-01-30T10:56:14;24.63;;;10.48;;
66298;SDS011;53098;47.658;8.578;2024-01-30T10:58:41;19.25;;;11.48;;
66298;SDS011;53098;47.658;8.578;2024-01-30T11:01:06;18.03;;;9.23;;
66298;SDS011;53098;47.658;8.578;2024-01-30T11:03:32;20.60;;;11.00;;
66298;SDS011;53098;47.658;8.578;2024-01-30T11:05:59;16.52;;;9.50;;
66298;SDS011;53098;47.658;8.578;2024-01-30T11:08:25;16.83;;;9.43;;
66298;SDS011;53098;47.658;8.578;2024-01-30T11:10:54;15.07;;;8.93;;
66298;SDS011;53098;47.658;8.578;2024-01-30T11:13:19;16.63;;;8.45;;
66298;SDS011;53098;47.658;8.578;2024-01-30T11:15:44;15.63;;;10.03;;
66298;SDS011;53098;47.658;8.578;2024-01-30T11:18:12;14.43;;;8.60;;
66298;SDS011;53098;47.658;8.578;2024-01-30T11:20:47;17.38;;;8.88;;
66298;SDS011;53098;47.658;8.578;2024-01-30T11:23:13;17.10;;;9.43;;
66298;SDS011;53098;47.658;8.578;2024-01-30T11:25:39;16.77;;;9.32;;
66298;SDS011;53098;47.658;8.578;2024-01-30T11:28:04;15.03;;;9.73;;
66298;SDS011;53098;47.658;8.578;2024-01-30T11:30:30;16.17;;;8.97;;
66298;SDS011;53098;47.658;8.578;2024-01-30T11:33:02;15.05;;;9.02;;
66298;SDS011;53098;47.658;8.578;2024-01-30T11:35:27;14.60;;;7.93;;
66298;SDS011;53098;47.658;8.578;2024-01-30T11:37:52;14.85;;;8.95;;
66298;SDS011;53098;47.658;8.578;2024-01-30T11:40:19;14.43;;;8.77;;
66298;SDS011;53098;47.658;8.578;2024-01-30T11:42:44;15.50;;;9.77;;
66298;SDS011;53098;47.658;8.578;2024-01-30T11:45:10;15.43;;;9.43;;
66298;SDS011;53098;47.658;8.578;2024-01-30T11:47:36;18.27;;;9.75;;
66298;SDS011;53098;47.658;8.578;2024-01-30T11:50:01;15.83;;;8.97;;
66298;SDS011;53098;47.658;8.578;2024-01-30T11:52:26;15.37;;;9.00;;
66298;SDS011;53098;47.658;8.578;2024-01-30T11:54:51;16.67;;;9.60;;
66298;SDS011;53098;47.658;8.578;2024-01-30T11:57:17;18.70;;;10.30;;
66298;SDS011;53098;47.658;8.578;2024-01-30T11:59:42;16.80;;;9.63;;
66298;SDS011;53098;47.658;8.578;2024-01-30T12:02:07;20.00;;;10.17;;
66298;SDS011;53098;47.658;8.578;2024-01-30T12:04:33;17.13;;;10.13;;
66298;SDS011;53098;47.658;8.578;2024-01-30T12:06:58;16.92;;;10.05;;
66298;SDS011;53098;47.658;8.578;2024-01-30T12:09:24;20.07;;;11.50;;
66298;SDS011;53098;47.658;8.578;2024-01-30T12:11:49;18.67;;;11.23;;
66298;SDS011;53098;47.658;8.578;2024-01-30T12:14:14;20.77;;;12.25;;
66298;SDS011;53098;47.658;8.578;2024-01-30T12:16:39;21.23;;;12.70;;
66298;SDS011;53098;47.658;8.578;2024-01-30T12:19:05;21.23;;;11.63;;
66298;SDS011;53098;47.658;8.578;2024-01-30T12:21:30;20.70;;;11.57;;
66298;SDS011;53098;47.658;8.578;2024-01-30T12:23:56;20.58;;;12.15;;
66298;SDS011;53098;47.658;8.578;2024-01-30T12:26:21;23.42;;;12.60;;
66298;SDS011;53098;47.658;8.578;2024-01-30T12:28:49;22.73;;;12.43;;
66298;SDS011;53098;47.658;8.578;2024-01-30T12:31:15;22.50;;;13.45;;
66298;SDS011;53098;47.658;8.578;2024-01-30T12:33:40;18.37;;;11.03;;
66298;SDS011;53098;47.658;8.578;2024-01-30T12:36:06;18.50;;;10.88;;
66298;SDS011;53098;47.658;8.578;2024-01-30T12:38:31;19.33;;;11.65;;
66298;SDS011;53098;47.658;8.578;2024-01-30T12:40:56;18.60;;;11.00;;
66298;SDS011;53098;47.658;8.578;2024-01-30T12:43:22;19.25;;;11.57;;
66298;SDS011;53098;47.658;8.578;2024-01-30T12:45:48;16.00;;;9.93;;
66298;SDS011;53098;47.658;8.578;2024-01-30T12:48:13;19.23;;;10.83;;
66298;SDS011;53098;47.658;8.578;2024-01-30T12:50:39;20.50;;;11.10;;
66298;SDS011;53098;47.658;8.578;2024-01-30T12:53:04;15.80;;;9.53;;
66298;SDS011;53098;47.658;8.578;2024-01-30T12:55:29;15.87;;;9.93;;
66298;SDS011;53098;47.658;8.578;2024-01-30T12:57:54;16.67;;;9.70;;
66298;SDS011;53098;47.658;8.578;2024-01-30T13:00:20;17.97;;;10.47;;
66298;SDS011;53098;47.658;8.578;2024-01-30T13:02:45;17.23;;;10.53;;
66298;SDS011;53098;47.658;8.578;2024-01-30T13:05:10;18.00;;;11.20;;
66298;SDS011;53098;47.658;8.578;2024-01-30T13:07:36;18.60;;;11.07;;
66298;SDS011;53098;47.658;8.578;2024-01-30T13:10:01;19.27;;;11.47;;
66298;SDS011;53098;47.658;8.578;2024-01-30T13:12:26;19.90;;;11.45;;
66298;SDS011;53098;47.658;8.578;2024-01-30T13:14:51;17.20;;;10.73;;
66298;SDS011;53098;47.658;8.578;2024-01-30T13:17:17;19.47;;;11.53;;
66298;SDS011;53098;47.658;8.578;2024-01-30T13:19:42;18.70;;;10.87;;
66298;SDS011;53098;47.658;8.578;2024-01-30T13:22:07;21.08;;;12.15;;
66298;SDS011;53098;47.658;8.578;2024-01-30T13:24:32;18.27;;;10.73;;
66298;SDS011;53098;47.658;8.578;2024-01-30T13:26:58;16.97;;;9.83;;
66298;SDS011;53098;47.658;8.578;2024-01-30T13:29:23;17.40;;;10.70;;
66298;SDS011;53098;47.658;8.578;2024-01-30T13:31:48;19.17;;;10.73;;
66298;SDS011;53098;47.658;8.578;2024-01-30T13:34:13;16.73;;;10.13;;
66298;SDS011;53098;47.658;8.578;2024-01-30T13:36:39;15.93;;;9.73;;
66298;SDS011;53098;47.658;8.578;2024-01-30T13:39:04;20.17;;;10.37;;
66298;SDS011;53098;47.658;8.578;2024-01-30T13:41:29;14.87;;;9.20;;
66298;SDS011;53098;47.658;8.578;2024-01-30T13:43:54;14.93;;;9.20;;
66298;SDS011;53098;47.658;8.578;2024-01-30T13:46:20;15.10;;;9.60;;
66298;SDS011;53098;47.658;8.578;2024-01-30T13:48:45;16.08;;;9.15;;
66298;SDS011;53098;47.658;8.578;2024-01-30T13:51:10;17.93;;;9.93;;
66298;SDS011;53098;47.658;8.578;2024-01-30T13:53:35;14.67;;;8.67;;
66298;SDS011;53098;47.658;8.578;2024-01-30T13:56:01;16.50;;;9.13;;
66298;SDS011;53098;47.658;8.578;2024-01-30T13:58:26;13.90;;;8.57;;
66298;SDS011;53098;47.658;8.578;2024-01-30T14:00:51;15.47;;;9.00;;
66298;SDS011;53098;47.658;8.578;2024-01-30T14:03:16;15.87;;;8.80;;
66298;SDS011;53098;47.658;8.578;2024-01-30T14:05:42;14.40;;;8.70;;
66298;SDS011;53098;47.658;8.578;2024-01-30T14:08:07;15.03;;;9.30;;
66298;SDS011;53098;47.658;8.578;2024-01-30T14:10:32;15.43;;;8.80;;
66298;SDS011;53098;47.658;8.578;2024-01-30T14:12:57;15.40;;;9.70;;
66298;SDS011;53098;47.658;8.578;2024-01-30T14:15:23;16.90;;;9.77;;
66298;SDS011;53098;47.658;8.578;2024-01-30T14:17:48;18.23;;;9.27;;
66298;SDS011;53098;47.658;8.578;2024-01-30T14:20:13;17.73;;;9.40;;